sensor_id;sensor_type;location;lat;lon;timestamp;P1;durP1;ratioP1;P2;durP2;ratioP2
50681;SDS011;36779;52.168;20.878;2023-05-29T00:01:45;6.60;;;2.40;;
50681;SDS011;36779;52.168;20.878;2023-05-29T00:04:16;4.60;;;2.40;;
50681;SDS011;36779;52.168;20.878;2023-05-29T00:06:49;5.20;;;2.00;;
50681;SDS011;36779;52.168;20.878;2023-05-29T00:09:19;7.20;;;3.10;;
50681;SDS011;36779;52.168;20.878;2023-05-29T00:11:48;5.20;;;1.90;;
50681;SDS011;36779;52.168;20.878;2023-05-29T00:14:19;6.60;;;2.00;;
50681;SDS011;36779;52.168;20.878;2023-05-29T00:16:50;6.00;;;2.30;;
50681;SDS011;36779;52.168;20.878;2023-05-29T00:19:24;4.80;;;1.90;;
50681;SDS011;36779;52.168;20.878;2023-05-29T00:21:58;11.90;;;2.20;;
50681;SDS011;36779;52.168;20.878;2023-05-29T00:24:31;5.80;;;2.70;;
50681;SDS011;36779;52.168;20.878;2023-05-29T00:27:00;4.80;;;1.80;;
50681;SDS011;36779;52.168;20.878;2023-05-29T00:29:30;4.60;;;1.90;;
50681;SDS011;36779;52.168;20.878;2023-05-29T00:32:01;5.40;;;2.10;;
50681;SDS011;36779;52.168;20.878;2023-05-29T00:34:33;4.10;;;1.90;;
50681;SDS011;36779;52.168;20.878;2023-05-29T00:37:05;10.40;;;2.20;;
50681;SDS011;36779;52.168;20.878;2023-05-29T00:39:34;6.30;;;2.00;;
50681;SDS011;36779;52.168;20.878;2023-05-29T00:42:05;10.20;;;1.80;;
50681;SDS011;36779;52.168;20.878;2023-05-29T00:44:34;8.10;;;2.30;;
50681;SDS011;36779;52.168;20.878;2023-05-29T00:47:07;9.00;;;2.40;;
50681;SDS011;36779;52.168;20.878;2023-05-29T00:49:36;9.00;;;2.30;;
50681;SDS011;36779;52.168;20.878;2023-05-29T00:52:08;6.10;;;2.10;;
50681;SDS011;36779;52.168;20.878;2023-05-29T00:54:43;3.70;;;2.10;;
50681;SDS011;36779;52.168;20.878;2023-05-29T00:57:14;6.90;;;2.20;;
50681;SDS011;36779;52.168;20.878;2023-05-29T00:59:48;7.00;;;1.90;;
50681;SDS011;36779;52.168;20.878;2023-05-29T01:02:19;4.40;;;2.00;;
50681;SDS011;36779;52.168;20.878;2023-05-29T01:04:49;6.50;;;2.30;;
50681;SDS011;36779;52.168;20.878;2023-05-29T01:07:27;8.80;;;2.10;;
50681;SDS011;36779;52.168;20.878;2023-05-29T01:09:59;6.80;;;2.00;;
50681;SDS011;36779;52.168;20.878;2023-05-29T01:12:32;5.70;;;2.20;;
50681;SDS011;36779;52.168;20.878;2023-05-29T01:15:28;5.40;;;2.40;;
50681;SDS011;36779;52.168;20.878;2023-05-29T01:18:12;7.40;;;2.00;;
50681;SDS011;36779;52.168;20.878;2023-05-29T01:20:59;5.50;;;1.70;;
50681;SDS011;36779;52.168;20.878;2023-05-29T01:26:47;5.40;;;2.00;;
50681;SDS011;36779;52.168;20.878;2023-05-29T01:29:23;5.20;;;1.90;;
50681;SDS011;36779;52.168;20.878;2023-05-29T01:31:54;6.80;;;2.70;;
50681;SDS011;36779;52.168;20.878;2023-05-29T01:34:34;6.10;;;2.20;;
50681;SDS011;36779;52.168;20.878;2023-05-29T01:37:05;6.10;;;2.50;;
50681;SDS011;36779;52.168;20.878;2023-05-29T01:39:37;5.10;;;2.20;;
50681;SDS011;36779;52.168;20.878;2023-05-29T01:42:06;8.20;;;2.20;;
50681;SDS011;36779;52.168;20.878;2023-05-29T01:44:36;6.10;;;2.10;;
50681;SDS011;36779;52.168;20.878;2023-05-29T01:47:08;5.10;;;2.00;;
50681;SDS011;36779;52.168;20.878;2023-05-29T01:49:52;7.80;;;2.20;;
50681;SDS011;36779;52.168;20.878;2023-05-29T01:52:28;6.20;;;2.70;;
50681;SDS011;36779;52.168;20.878;2023-05-29T01:55:04;12.00;;;2.50;;
50681;SDS011;36779;52.168;20.878;2023-05-29T01:57:37;5.00;;;2.00;;
50681;SDS011;36779;52.168;20.878;2023-05-29T02:00:14;5.70;;;2.00;;
50681;SDS011;36779;52.168;20.878;2023-05-29T02:02:56;4.20;;;1.90;;
50681;SDS011;36779;52.168;20.878;2023-05-29T02:05:28;4.10;;;1.90;;
50681;SDS011;36779;52.168;20.878;2023-05-29T02:07:57;5.50;;;2.10;;
50681;SDS011;36779;52.168;20.878;2023-05-29T02:10:27;5.30;;;2.30;;
50681;SDS011;36779;52.168;20.878;2023-05-29T02:12:59;6.00;;;2.30;;
50681;SDS011;36779;52.168;20.878;2023-05-29T02:15:33;7.20;;;2.90;;
50681;SDS011;36779;52.168;20.878;2023-05-29T02:18:03;9.20;;;2.80;;
50681;SDS011;36779;52.168;20.878;2023-05-29T02:20:33;5.10;;;2.50;;
50681;SDS011;36779;52.168;20.878;2023-05-29T02:23:03;5.80;;;2.30;;
50681;SDS011;36779;52.168;20.878;2023-05-29T02:25:37;8.60;;;2.40;;
50681;SDS011;36779;52.168;20.878;2023-05-29T02:28:09;7.10;;;2.50;;
50681;SDS011;36779;52.168;20.878;2023-05-29T02:30:42;7.90;;;2.40;;
50681;SDS011;36779;52.168;20.878;2023-05-29T02:33:11;5.00;;;2.60;;
50681;SDS011;36779;52.168;20.878;2023-05-29T02:35:40;6.40;;;2.70;;
50681;SDS011;36779;52.168;20.878;2023-05-29T02:38:10;5.60;;;2.50;;
50681;SDS011;36779;52.168;20.878;2023-05-29T02:40:41;8.00;;;2.80;;
50681;SDS011;36779;52.168;20.878;2023-05-29T02:43:13;5.20;;;1.90;;
50681;SDS011;36779;52.168;20.878;2023-05-29T02:45:42;6.80;;;2.40;;
50681;SDS011;36779;52.168;20.878;2023-05-29T02:48:11;5.30;;;2.60;;
50681;SDS011;36779;52.168;20.878;2023-05-29T02:50:44;9.00;;;2.60;;
50681;SDS011;36779;52.168;20.878;2023-05-29T02:53:15;5.50;;;2.70;;
50681;SDS011;36779;52.168;20.878;2023-05-29T02:55:48;8.10;;;2.80;;
50681;SDS011;36779;52.168;20.878;2023-05-29T02:58:18;8.30;;;2.60;;
50681;SDS011;36779;52.168;20.878;2023-05-29T03:00:50;9.20;;;2.60;;
50681;SDS011;36779;52.168;20.878;2023-05-29T03:03:22;5.00;;;2.60;;
50681;SDS011;36779;52.168;20.878;2023-05-29T03:05:59;7.20;;;2.60;;
50681;SDS011;36779;52.168;20.878;2023-05-29T03:08:29;12.70;;;2.70;;
50681;SDS011;36779;52.168;20.878;2023-05-29T03:11:00;7.30;;;2.30;;
50681;SDS011;36779;52.168;20.878;2023-05-29T03:13:32;6.30;;;2.80;;
50681;SDS011;36779;52.168;20.878;2023-05-29T03:16:05;7.10;;;2.50;;
50681;SDS011;36779;52.168;20.878;2023-05-29T03:18:39;10.00;;;2.60;;
50681;SDS011;36779;52.168;20.878;2023-05-29T03:21:12;8.40;;;3.00;;
50681;SDS011;36779;52.168;20.878;2023-05-29T03:23:41;6.50;;;2.60;;
50681;SDS011;36779;52.168;20.878;2023-05-29T03:26:16;6.30;;;2.90;;
50681;SDS011;36779;52.168;20.878;2023-05-29T03:28:45;10.10;;;3.10;;
50681;SDS011;36779;52.168;20.878;2023-05-29T03:31:15;4.80;;;2.30;;
50681;SDS011;36779;52.168;20.878;2023-05-29T03:33:47;7.40;;;2.40;;
50681;SDS011;36779;52.168;20.878;2023-05-29T03:36:39;5.00;;;2.30;;
50681;SDS011;36779;52.168;20.878;2023-05-29T03:39:13;4.60;;;2.10;;
50681;SDS011;36779;52.168;20.878;2023-05-29T03:41:42;5.60;;;2.90;;
50681;SDS011;36779;52.168;20.878;2023-05-29T03:44:15;5.40;;;2.50;;
50681;SDS011;36779;52.168;20.878;2023-05-29T03:46:44;6.10;;;2.90;;
50681;SDS011;36779;52.168;20.878;2023-05-29T03:49:16;7.30;;;2.50;;
50681;SDS011;36779;52.168;20.878;2023-05-29T03:51:46;5.50;;;2.50;;
50681;SDS011;36779;52.168;20.878;2023-05-29T03:54:18;7.80;;;2.80;;
50681;SDS011;36779;52.168;20.878;2023-05-29T03:56:55;5.00;;;2.40;;
50681;SDS011;36779;52.168;20.878;2023-05-29T03:59:26;7.50;;;3.10;;
50681;SDS011;36779;52.168;20.878;2023-05-29T04:01:57;8.50;;;3.30;;
50681;SDS011;36779;52.168;20.878;2023-05-29T04:04:28;6.00;;;3.00;;
50681;SDS011;36779;52.168;20.878;2023-05-29T04:06:58;6.50;;;2.60;;
50681;SDS011;36779;52.168;20.878;2023-05-29T04:09:28;9.20;;;3.10;;
50681;SDS011;36779;52.168;20.878;2023-05-29T04:11:58;6.40;;;3.20;;
50681;SDS011;36779;52.168;20.878;2023-05-29T04:14:33;6.90;;;3.20;;
50681;SDS011;36779;52.168;20.878;2023-05-29T04:17:02;12.20;;;4.30;;
50681;SDS011;36779;52.168;20.878;2023-05-29T04:19:32;9.40;;;3.70;;
50681;SDS011;36779;52.168;20.878;2023-05-29T04:22:01;7.90;;;3.40;;
50681;SDS011;36779;52.168;20.878;2023-05-29T04:24:34;6.90;;;3.10;;
50681;SDS011;36779;52.168;20.878;2023-05-29T04:27:04;8.00;;;3.50;;
50681;SDS011;36779;52.168;20.878;2023-05-29T04:29:34;9.80;;;3.50;;
50681;SDS011;36779;52.168;20.878;2023-05-29T04:32:07;7.70;;;3.40;;
50681;SDS011;36779;52.168;20.878;2023-05-29T04:34:41;13.40;;;3.70;;
50681;SDS011;36779;52.168;20.878;2023-05-29T04:37:15;13.30;;;3.20;;
50681;SDS011;36779;52.168;20.878;2023-05-29T04:39:44;5.90;;;3.10;;
50681;SDS011;36779;52.168;20.878;2023-05-29T04:42:21;6.80;;;3.40;;
50681;SDS011;36779;52.168;20.878;2023-05-29T04:44:53;7.80;;;4.30;;
50681;SDS011;36779;52.168;20.878;2023-05-29T04:47:26;8.40;;;3.60;;
50681;SDS011;36779;52.168;20.878;2023-05-29T04:50:00;9.40;;;4.10;;
50681;SDS011;36779;52.168;20.878;2023-05-29T04:52:29;7.50;;;3.70;;
50681;SDS011;36779;52.168;20.878;2023-05-29T04:54:59;7.70;;;4.70;;
50681;SDS011;36779;52.168;20.878;2023-05-29T04:57:35;8.90;;;4.70;;
50681;SDS011;36779;52.168;20.878;2023-05-29T05:00:14;8.90;;;4.10;;
50681;SDS011;36779;52.168;20.878;2023-05-29T05:02:45;9.40;;;4.20;;
50681;SDS011;36779;52.168;20.878;2023-05-29T05:05:15;6.10;;;3.30;;
50681;SDS011;36779;52.168;20.878;2023-05-29T05:07:46;5.00;;;2.70;;
50681;SDS011;36779;52.168;20.878;2023-05-29T05:10:15;7.50;;;3.40;;
50681;SDS011;36779;52.168;20.878;2023-05-29T05:12:49;6.50;;;3.20;;
50681;SDS011;36779;52.168;20.878;2023-05-29T05:15:20;4.80;;;3.10;;
50681;SDS011;36779;52.168;20.878;2023-05-29T05:17:49;3.30;;;2.50;;
50681;SDS011;36779;52.168;20.878;2023-05-29T05:20:18;4.80;;;2.70;;
50681;SDS011;36779;52.168;20.878;2023-05-29T05:22:55;5.60;;;2.80;;
50681;SDS011;36779;52.168;20.878;2023-05-29T05:25:24;8.70;;;3.10;;
50681;SDS011;36779;52.168;20.878;2023-05-29T05:27:57;5.80;;;2.70;;
50681;SDS011;36779;52.168;20.878;2023-05-29T05:30:28;4.10;;;2.50;;
50681;SDS011;36779;52.168;20.878;2023-05-29T05:32:57;6.70;;;3.10;;
50681;SDS011;36779;52.168;20.878;2023-05-29T05:35:28;5.60;;;2.80;;
50681;SDS011;36779;52.168;20.878;2023-05-29T05:37:57;7.50;;;3.00;;
50681;SDS011;36779;52.168;20.878;2023-05-29T05:40:27;10.70;;;2.30;;
50681;SDS011;36779;52.168;20.878;2023-05-29T05:43:00;7.70;;;2.30;;
50681;SDS011;36779;52.168;20.878;2023-05-29T05:46:04;8.80;;;2.30;;
50681;SDS011;36779;52.168;20.878;2023-05-29T05:48:34;6.80;;;2.40;;
50681;SDS011;36779;52.168;20.878;2023-05-29T05:51:03;7.80;;;2.60;;
50681;SDS011;36779;52.168;20.878;2023-05-29T05:53:34;7.90;;;2.40;;
50681;SDS011;36779;52.168;20.878;2023-05-29T05:56:04;4.90;;;2.20;;
50681;SDS011;36779;52.168;20.878;2023-05-29T05:58:34;5.30;;;2.30;;
50681;SDS011;36779;52.168;20.878;2023-05-29T06:01:03;7.50;;;2.80;;
50681;SDS011;36779;52.168;20.878;2023-05-29T06:03:35;4.60;;;2.70;;
50681;SDS011;36779;52.168;20.878;2023-05-29T06:06:07;6.00;;;3.00;;
50681;SDS011;36779;52.168;20.878;2023-05-29T06:08:40;9.60;;;3.50;;
50681;SDS011;36779;52.168;20.878;2023-05-29T06:11:09;4.40;;;2.80;;
50681;SDS011;36779;52.168;20.878;2023-05-29T06:13:39;8.40;;;2.90;;
50681;SDS011;36779;52.168;20.878;2023-05-29T06:16:16;7.30;;;2.90;;
50681;SDS011;36779;52.168;20.878;2023-05-29T06:18:46;8.40;;;3.00;;
50681;SDS011;36779;52.168;20.878;2023-05-29T06:21:18;7.40;;;2.80;;
50681;SDS011;36779;52.168;20.878;2023-05-29T06:23:53;8.90;;;3.00;;
50681;SDS011;36779;52.168;20.878;2023-05-29T06:26:25;6.30;;;3.20;;
50681;SDS011;36779;52.168;20.878;2023-05-29T06:28:55;8.60;;;2.70;;
50681;SDS011;36779;52.168;20.878;2023-05-29T06:31:29;5.60;;;2.50;;
50681;SDS011;36779;52.168;20.878;2023-05-29T06:34:01;6.40;;;2.50;;
50681;SDS011;36779;52.168;20.878;2023-05-29T06:36:30;8.20;;;2.50;;
50681;SDS011;36779;52.168;20.878;2023-05-29T06:39:01;8.00;;;2.50;;
50681;SDS011;36779;52.168;20.878;2023-05-29T06:41:30;6.60;;;2.50;;
50681;SDS011;36779;52.168;20.878;2023-05-29T06:43:59;11.20;;;2.20;;
50681;SDS011;36779;52.168;20.878;2023-05-29T06:46:29;3.00;;;1.90;;
50681;SDS011;36779;52.168;20.878;2023-05-29T06:48:59;4.60;;;2.10;;
50681;SDS011;36779;52.168;20.878;2023-05-29T06:51:32;5.90;;;2.00;;
50681;SDS011;36779;52.168;20.878;2023-05-29T06:54:02;7.20;;;2.10;;
50681;SDS011;36779;52.168;20.878;2023-05-29T06:56:35;4.40;;;1.60;;
50681;SDS011;36779;52.168;20.878;2023-05-29T06:59:05;2.70;;;1.60;;
50681;SDS011;36779;52.168;20.878;2023-05-29T07:01:34;3.30;;;1.30;;
50681;SDS011;36779;52.168;20.878;2023-05-29T07:04:04;7.60;;;1.80;;
50681;SDS011;36779;52.168;20.878;2023-05-29T07:06:34;3.70;;;1.20;;
50681;SDS011;36779;52.168;20.878;2023-05-29T07:09:03;3.90;;;1.20;;
50681;SDS011;36779;52.168;20.878;2023-05-29T07:11:32;4.70;;;1.50;;
50681;SDS011;36779;52.168;20.878;2023-05-29T07:14:01;5.40;;;2.10;;
50681;SDS011;36779;52.168;20.878;2023-05-29T07:16:32;4.80;;;1.60;;
50681;SDS011;36779;52.168;20.878;2023-05-29T07:19:04;5.10;;;1.60;;
50681;SDS011;36779;52.168;20.878;2023-05-29T07:21:36;7.80;;;1.90;;
50681;SDS011;36779;52.168;20.878;2023-05-29T07:24:06;6.40;;;1.90;;
50681;SDS011;36779;52.168;20.878;2023-05-29T07:26:36;7.20;;;1.40;;
50681;SDS011;36779;52.168;20.878;2023-05-29T07:29:07;5.80;;;1.40;;
50681;SDS011;36779;52.168;20.878;2023-05-29T07:31:37;5.80;;;1.50;;
50681;SDS011;36779;52.168;20.878;2023-05-29T07:34:08;4.70;;;1.50;;
50681;SDS011;36779;52.168;20.878;2023-05-29T07:36:55;9.30;;;1.60;;
50681;SDS011;36779;52.168;20.878;2023-05-29T07:39:25;5.10;;;1.40;;
50681;SDS011;36779;52.168;20.878;2023-05-29T07:41:55;3.70;;;1.20;;
50681;SDS011;36779;52.168;20.878;2023-05-29T07:44:25;4.70;;;1.40;;
50681;SDS011;36779;52.168;20.878;2023-05-29T07:46:56;6.30;;;1.50;;
50681;SDS011;36779;52.168;20.878;2023-05-29T07:49:47;3.90;;;1.40;;
50681;SDS011;36779;52.168;20.878;2023-05-29T07:52:18;5.90;;;1.60;;
50681;SDS011;36779;52.168;20.878;2023-05-29T07:54:48;6.30;;;1.60;;
50681;SDS011;36779;52.168;20.878;2023-05-29T07:57:19;6.60;;;1.20;;
50681;SDS011;36779;52.168;20.878;2023-05-29T07:59:48;9.00;;;1.60;;
50681;SDS011;36779;52.168;20.878;2023-05-29T08:02:21;10.50;;;2.10;;
50681;SDS011;36779;52.168;20.878;2023-05-29T08:04:56;4.60;;;1.80;;
50681;SDS011;36779;52.168;20.878;2023-05-29T08:07:26;5.60;;;1.90;;
50681;SDS011;36779;52.168;20.878;2023-05-29T08:09:59;5.50;;;1.50;;
50681;SDS011;36779;52.168;20.878;2023-05-29T08:12:28;7.40;;;1.40;;
50681;SDS011;36779;52.168;20.878;2023-05-29T08:14:58;3.20;;;1.60;;
50681;SDS011;36779;52.168;20.878;2023-05-29T08:17:28;4.30;;;1.70;;
50681;SDS011;36779;52.168;20.878;2023-05-29T08:20:00;7.60;;;1.80;;
50681;SDS011;36779;52.168;20.878;2023-05-29T08:22:29;10.10;;;1.60;;
50681;SDS011;36779;52.168;20.878;2023-05-29T08:25:01;2.30;;;1.10;;
50681;SDS011;36779;52.168;20.878;2023-05-29T08:27:31;6.40;;;1.70;;
50681;SDS011;36779;52.168;20.878;2023-05-29T08:30:00;7.40;;;1.50;;
50681;SDS011;36779;52.168;20.878;2023-05-29T08:32:29;5.90;;;1.30;;
50681;SDS011;36779;52.168;20.878;2023-05-29T08:34:58;3.20;;;1.20;;
50681;SDS011;36779;52.168;20.878;2023-05-29T08:37:30;4.00;;;1.20;;
50681;SDS011;36779;52.168;20.878;2023-05-29T08:40:03;2.90;;;1.30;;
50681;SDS011;36779;52.168;20.878;2023-05-29T08:42:39;6.70;;;1.90;;
50681;SDS011;36779;52.168;20.878;2023-05-29T08:45:14;6.50;;;1.40;;
50681;SDS011;36779;52.168;20.878;2023-05-29T08:47:46;4.20;;;1.50;;
50681;SDS011;36779;52.168;20.878;2023-05-29T08:50:20;3.20;;;1.90;;
50681;SDS011;36779;52.168;20.878;2023-05-29T08:52:49;5.90;;;1.60;;
50681;SDS011;36779;52.168;20.878;2023-05-29T08:55:19;5.60;;;1.40;;
50681;SDS011;36779;52.168;20.878;2023-05-29T08:57:48;5.90;;;1.50;;
50681;SDS011;36779;52.168;20.878;2023-05-29T09:00:18;8.00;;;1.60;;
50681;SDS011;36779;52.168;20.878;2023-05-29T09:02:49;4.30;;;1.90;;
50681;SDS011;36779;52.168;20.878;2023-05-29T09:05:21;6.90;;;1.60;;
50681;SDS011;36779;52.168;20.878;2023-05-29T09:07:50;4.40;;;1.40;;
50681;SDS011;36779;52.168;20.878;2023-05-29T09:10:19;7.90;;;1.70;;
50681;SDS011;36779;52.168;20.878;2023-05-29T09:12:54;4.60;;;1.70;;
50681;SDS011;36779;52.168;20.878;2023-05-29T09:15:23;6.40;;;1.90;;
50681;SDS011;36779;52.168;20.878;2023-05-29T09:17:55;6.60;;;2.10;;
50681;SDS011;36779;52.168;20.878;2023-05-29T09:20:25;9.20;;;2.20;;
50681;SDS011;36779;52.168;20.878;2023-05-29T09:22:56;5.30;;;2.20;;
50681;SDS011;36779;52.168;20.878;2023-05-29T09:25:27;6.50;;;2.30;;
50681;SDS011;36779;52.168;20.878;2023-05-29T09:28:02;9.00;;;2.40;;
50681;SDS011;36779;52.168;20.878;2023-05-29T09:30:34;7.40;;;2.00;;
50681;SDS011;36779;52.168;20.878;2023-05-29T09:33:07;11.10;;;2.60;;
50681;SDS011;36779;52.168;20.878;2023-05-29T09:35:38;6.50;;;2.20;;
50681;SDS011;36779;52.168;20.878;2023-05-29T09:38:08;9.20;;;2.70;;
50681;SDS011;36779;52.168;20.878;2023-05-29T09:40:44;8.50;;;2.10;;
50681;SDS011;36779;52.168;20.878;2023-05-29T09:43:14;6.30;;;2.10;;
50681;SDS011;36779;52.168;20.878;2023-05-29T09:45:44;10.90;;;2.40;;
50681;SDS011;36779;52.168;20.878;2023-05-29T09:48:16;8.80;;;2.50;;
50681;SDS011;36779;52.168;20.878;2023-05-29T09:50:46;7.60;;;1.90;;
50681;SDS011;36779;52.168;20.878;2023-05-29T09:53:19;5.60;;;2.00;;
50681;SDS011;36779;52.168;20.878;2023-05-29T09:55:54;3.80;;;1.90;;
50681;SDS011;36779;52.168;20.878;2023-05-29T09:58:28;6.30;;;2.10;;
50681;SDS011;36779;52.168;20.878;2023-05-29T10:01:01;7.60;;;2.10;;
50681;SDS011;36779;52.168;20.878;2023-05-29T10:03:30;5.90;;;2.10;;
50681;SDS011;36779;52.168;20.878;2023-05-29T10:06:02;7.40;;;2.10;;
50681;SDS011;36779;52.168;20.878;2023-05-29T10:08:35;8.00;;;1.90;;
50681;SDS011;36779;52.168;20.878;2023-05-29T10:11:07;5.90;;;2.00;;
50681;SDS011;36779;52.168;20.878;2023-05-29T10:13:43;9.90;;;2.20;;
50681;SDS011;36779;52.168;20.878;2023-05-29T10:16:17;6.00;;;2.00;;
50681;SDS011;36779;52.168;20.878;2023-05-29T10:18:53;6.30;;;2.30;;
50681;SDS011;36779;52.168;20.878;2023-05-29T10:21:23;5.70;;;2.30;;
50681;SDS011;36779;52.168;20.878;2023-05-29T10:23:55;4.30;;;2.20;;
50681;SDS011;36779;52.168;20.878;2023-05-29T10:26:27;5.80;;;2.20;;
50681;SDS011;36779;52.168;20.878;2023-05-29T10:29:00;6.70;;;2.50;;
50681;SDS011;36779;52.168;20.878;2023-05-29T10:31:39;5.00;;;2.20;;
50681;SDS011;36779;52.168;20.878;2023-05-29T10:34:30;6.30;;;1.80;;
50681;SDS011;36779;52.168;20.878;2023-05-29T10:37:09;5.00;;;2.10;;
50681;SDS011;36779;52.168;20.878;2023-05-29T10:39:48;5.40;;;2.30;;
50681;SDS011;36779;52.168;20.878;2023-05-29T10:48:38;7.30;;;2.40;;
50681;SDS011;36779;52.168;20.878;2023-05-29T10:51:08;9.00;;;2.70;;
50681;SDS011;36779;52.168;20.878;2023-05-29T10:53:51;8.40;;;2.40;;
50681;SDS011;36779;52.168;20.878;2023-05-29T10:56:23;4.80;;;2.30;;
50681;SDS011;36779;52.168;20.878;2023-05-29T10:58:58;6.20;;;2.30;;
50681;SDS011;36779;52.168;20.878;2023-05-29T11:01:32;5.10;;;2.30;;
50681;SDS011;36779;52.168;20.878;2023-05-29T11:07:00;6.60;;;2.30;;
50681;SDS011;36779;52.168;20.878;2023-05-29T11:09:37;5.10;;;2.10;;
50681;SDS011;36779;52.168;20.878;2023-05-29T11:12:14;6.50;;;1.80;;
50681;SDS011;36779;52.168;20.878;2023-05-29T11:14:54;4.80;;;2.10;;
50681;SDS011;36779;52.168;20.878;2023-05-29T11:20:27;7.00;;;2.30;;
50681;SDS011;36779;52.168;20.878;2023-05-29T11:23:03;6.60;;;2.60;;
50681;SDS011;36779;52.168;20.878;2023-05-29T11:25:36;7.90;;;2.70;;
50681;SDS011;36779;52.168;20.878;2023-05-29T11:28:08;5.30;;;2.80;;
50681;SDS011;36779;52.168;20.878;2023-05-29T11:30:42;7.10;;;2.70;;
50681;SDS011;36779;52.168;20.878;2023-05-29T11:33:16;7.70;;;2.70;;
50681;SDS011;36779;52.168;20.878;2023-05-29T11:35:57;6.80;;;2.30;;
50681;SDS011;36779;52.168;20.878;2023-05-29T11:38:29;6.60;;;2.30;;
50681;SDS011;36779;52.168;20.878;2023-05-29T11:41:00;7.80;;;2.20;;
50681;SDS011;36779;52.168;20.878;2023-05-29T11:43:31;6.30;;;1.80;;
50681;SDS011;36779;52.168;20.878;2023-05-29T11:46:01;7.10;;;2.20;;
50681;SDS011;36779;52.168;20.878;2023-05-29T11:48:32;6.20;;;2.50;;
50681;SDS011;36779;52.168;20.878;2023-05-29T11:51:03;5.20;;;2.30;;
50681;SDS011;36779;52.168;20.878;2023-05-29T11:53:36;5.90;;;2.60;;
50681;SDS011;36779;52.168;20.878;2023-05-29T11:56:09;5.20;;;1.90;;
50681;SDS011;36779;52.168;20.878;2023-05-29T11:58:39;5.30;;;1.90;;
50681;SDS011;36779;52.168;20.878;2023-05-29T12:01:09;6.10;;;2.00;;
50681;SDS011;36779;52.168;20.878;2023-05-29T12:03:39;6.70;;;2.10;;
50681;SDS011;36779;52.168;20.878;2023-05-29T12:06:09;7.80;;;2.10;;
50681;SDS011;36779;52.168;20.878;2023-05-29T12:08:42;4.90;;;2.00;;
50681;SDS011;36779;52.168;20.878;2023-05-29T12:11:14;11.70;;;2.20;;
50681;SDS011;36779;52.168;20.878;2023-05-29T12:16:24;6.10;;;2.00;;
50681;SDS011;36779;52.168;20.878;2023-05-29T12:19:01;4.10;;;2.00;;
50681;SDS011;36779;52.168;20.878;2023-05-29T12:21:31;10.70;;;2.30;;
50681;SDS011;36779;52.168;20.878;2023-05-29T12:24:01;2.70;;;1.70;;
50681;SDS011;36779;52.168;20.878;2023-05-29T12:26:42;4.70;;;2.00;;
50681;SDS011;36779;52.168;20.878;2023-05-29T12:29:12;5.70;;;1.90;;
50681;SDS011;36779;52.168;20.878;2023-05-29T12:31:41;7.10;;;2.10;;
50681;SDS011;36779;52.168;20.878;2023-05-29T12:34:11;4.10;;;2.00;;
50681;SDS011;36779;52.168;20.878;2023-05-29T12:36:43;4.90;;;1.80;;
50681;SDS011;36779;52.168;20.878;2023-05-29T12:39:13;6.70;;;2.00;;
50681;SDS011;36779;52.168;20.878;2023-05-29T12:41:42;6.90;;;1.80;;
50681;SDS011;36779;52.168;20.878;2023-05-29T12:44:11;7.30;;;1.70;;
50681;SDS011;36779;52.168;20.878;2023-05-29T12:46:40;2.40;;;1.90;;
50681;SDS011;36779;52.168;20.878;2023-05-29T12:49:13;3.30;;;2.00;;
50681;SDS011;36779;52.168;20.878;2023-05-29T12:51:43;5.20;;;1.90;;
50681;SDS011;36779;52.168;20.878;2023-05-29T12:54:15;3.00;;;1.60;;
50681;SDS011;36779;52.168;20.878;2023-05-29T12:56:44;2.70;;;1.60;;
50681;SDS011;36779;52.168;20.878;2023-05-29T12:59:14;11.10;;;2.40;;
50681;SDS011;36779;52.168;20.878;2023-05-29T13:01:44;8.70;;;1.90;;
50681;SDS011;36779;52.168;20.878;2023-05-29T13:04:16;3.00;;;1.50;;
50681;SDS011;36779;52.168;20.878;2023-05-29T13:06:46;6.20;;;1.70;;
50681;SDS011;36779;52.168;20.878;2023-05-29T13:09:17;7.00;;;2.10;;
50681;SDS011;36779;52.168;20.878;2023-05-29T13:11:46;8.10;;;2.00;;
50681;SDS011;36779;52.168;20.878;2023-05-29T13:14:16;13.30;;;3.10;;
50681;SDS011;36779;52.168;20.878;2023-05-29T13:16:45;4.50;;;1.70;;
50681;SDS011;36779;52.168;20.878;2023-05-29T13:19:16;4.30;;;1.60;;
50681;SDS011;36779;52.168;20.878;2023-05-29T13:21:45;7.20;;;1.80;;
50681;SDS011;36779;52.168;20.878;2023-05-29T13:24:16;2.30;;;1.60;;
50681;SDS011;36779;52.168;20.878;2023-05-29T13:26:45;5.70;;;1.70;;
50681;SDS011;36779;52.168;20.878;2023-05-29T13:29:15;4.30;;;1.80;;
50681;SDS011;36779;52.168;20.878;2023-05-29T13:31:45;3.50;;;1.70;;
50681;SDS011;36779;52.168;20.878;2023-05-29T13:34:14;4.50;;;1.70;;
50681;SDS011;36779;52.168;20.878;2023-05-29T13:36:43;4.60;;;1.70;;
50681;SDS011;36779;52.168;20.878;2023-05-29T13:39:13;4.10;;;1.70;;
50681;SDS011;36779;52.168;20.878;2023-05-29T13:41:43;7.00;;;1.80;;
50681;SDS011;36779;52.168;20.878;2023-05-29T13:44:12;3.50;;;1.70;;
50681;SDS011;36779;52.168;20.878;2023-05-29T13:46:42;3.30;;;1.60;;
50681;SDS011;36779;52.168;20.878;2023-05-29T13:49:12;2.30;;;1.80;;
50681;SDS011;36779;52.168;20.878;2023-05-29T13:51:42;6.70;;;1.80;;
50681;SDS011;36779;52.168;20.878;2023-05-29T13:54:15;2.40;;;1.50;;
50681;SDS011;36779;52.168;20.878;2023-05-29T13:56:45;3.70;;;1.80;;
50681;SDS011;36779;52.168;20.878;2023-05-29T13:59:14;4.30;;;1.80;;
50681;SDS011;36779;52.168;20.878;2023-05-29T14:01:44;4.30;;;1.70;;
50681;SDS011;36779;52.168;20.878;2023-05-29T14:04:13;3.80;;;1.60;;
50681;SDS011;36779;52.168;20.878;2023-05-29T14:06:45;5.30;;;1.80;;
50681;SDS011;36779;52.168;20.878;2023-05-29T14:09:15;3.60;;;1.90;;
50681;SDS011;36779;52.168;20.878;2023-05-29T14:11:50;5.70;;;1.90;;
50681;SDS011;36779;52.168;20.878;2023-05-29T14:14:20;5.30;;;1.80;;
50681;SDS011;36779;52.168;20.878;2023-05-29T14:19:36;6.00;;;1.70;;
50681;SDS011;36779;52.168;20.878;2023-05-29T14:22:05;5.20;;;1.70;;
50681;SDS011;36779;52.168;20.878;2023-05-29T14:24:38;3.80;;;1.70;;
50681;SDS011;36779;52.168;20.878;2023-05-29T14:27:15;2.40;;;1.40;;
50681;SDS011;36779;52.168;20.878;2023-05-29T14:29:44;4.30;;;1.90;;
50681;SDS011;36779;52.168;20.878;2023-05-29T14:32:16;3.70;;;1.50;;
50681;SDS011;36779;52.168;20.878;2023-05-29T14:34:45;6.40;;;1.90;;
50681;SDS011;36779;52.168;20.878;2023-05-29T14:37:15;5.30;;;1.80;;
50681;SDS011;36779;52.168;20.878;2023-05-29T14:39:44;4.80;;;1.80;;
50681;SDS011;36779;52.168;20.878;2023-05-29T14:42:13;3.50;;;1.60;;
50681;SDS011;36779;52.168;20.878;2023-05-29T14:44:47;5.20;;;1.70;;
50681;SDS011;36779;52.168;20.878;2023-05-29T14:47:16;6.80;;;1.80;;
50681;SDS011;36779;52.168;20.878;2023-05-29T14:49:46;3.40;;;1.90;;
50681;SDS011;36779;52.168;20.878;2023-05-29T14:52:15;4.50;;;1.70;;
50681;SDS011;36779;52.168;20.878;2023-05-29T14:54:46;5.60;;;2.00;;
50681;SDS011;36779;52.168;20.878;2023-05-29T14:57:16;2.50;;;1.80;;
50681;SDS011;36779;52.168;20.878;2023-05-29T14:59:45;3.90;;;2.00;;
50681;SDS011;36779;52.168;20.878;2023-05-29T15:02:16;5.90;;;2.00;;
50681;SDS011;36779;52.168;20.878;2023-05-29T15:04:46;2.90;;;1.60;;
50681;SDS011;36779;52.168;20.878;2023-05-29T15:07:16;4.80;;;1.90;;
50681;SDS011;36779;52.168;20.878;2023-05-29T15:09:48;6.20;;;1.80;;
50681;SDS011;36779;52.168;20.878;2023-05-29T15:12:17;4.00;;;1.90;;
50681;SDS011;36779;52.168;20.878;2023-05-29T15:14:47;5.50;;;1.90;;
50681;SDS011;36779;52.168;20.878;2023-05-29T15:17:18;4.80;;;2.00;;
50681;SDS011;36779;52.168;20.878;2023-05-29T15:19:48;2.70;;;1.80;;
50681;SDS011;36779;52.168;20.878;2023-05-29T15:22:20;5.30;;;2.10;;